createdAt,value
2023-11-15T00:01:01.935Z,8.20
2023-11-15T00:06:04.615Z,8.20
2023-11-15T00:11:06.701Z,8.20
2023-11-15T00:16:09.073Z,8.20
2023-11-15T00:21:10.945Z,8.20
2023-11-15T00:26:12.808Z,8.20
2023-11-15T00:31:22.873Z,8.30
2023-11-15T00:36:24.788Z,8.40
2023-11-15T00:41:27.081Z,8.40
2023-11-15T00:46:28.915Z,8.40
2023-11-15T00:51:31.016Z,8.40
2023-11-15T00:56:33.501Z,8.40
2023-11-15T01:01:35.697Z,8.40
2023-11-15T01:06:37.570Z,8.40
2023-11-15T01:11:39.673Z,8.40
2023-11-15T01:16:41.613Z,8.40
2023-11-15T01:21:43.601Z,8.50
2023-11-15T01:26:46.020Z,8.40
2023-11-15T01:31:47.976Z,8.50
2023-11-15T01:36:49.804Z,8.50
2023-11-15T01:41:51.902Z,8.50
2023-11-15T01:46:54.192Z,8.60
2023-11-15T01:51:56.320Z,8.60
2023-11-15T01:56:58.554Z,8.60
2023-11-15T02:02:00.462Z,8.50
2023-11-15T02:07:02.704Z,8.50
2023-11-15T02:12:05.477Z,8.50
2023-11-15T02:17:07.426Z,8.50
2023-11-15T02:22:10.187Z,8.40
2023-11-15T02:27:12.831Z,8.40
2023-11-15T02:32:14.721Z,8.50
2023-11-15T02:37:16.527Z,8.60
2023-11-15T02:42:19.866Z,8.60
2023-11-15T02:47:21.767Z,8.60
2023-11-15T02:52:23.724Z,8.60
2023-11-15T02:57:25.513Z,8.60
2023-11-15T03:02:27.475Z,8.50
2023-11-15T03:07:29.295Z,8.60
2023-11-15T03:12:33.338Z,8.60
2023-11-15T03:17:35.277Z,8.50
2023-11-15T03:22:37.411Z,8.50
2023-11-15T03:27:39.616Z,8.40
2023-11-15T03:32:41.566Z,8.40
2023-11-15T03:37:43.413Z,8.40
2023-11-15T03:42:45.164Z,8.40
2023-11-15T03:47:48.035Z,8.40
2023-11-15T03:52:49.850Z,8.40
2023-11-15T03:57:51.722Z,8.40
2023-11-15T04:02:53.891Z,8.40
2023-11-15T04:07:55.851Z,8.40
2023-11-15T04:12:57.960Z,8.30
2023-11-15T04:17:59.843Z,8.40
2023-11-15T04:23:02.698Z,8.30
2023-11-15T04:28:05.850Z,8.30
2023-11-15T04:33:07.717Z,8.30
2023-11-15T04:38:10.380Z,8.30
2023-11-15T04:43:12.250Z,8.40
2023-11-15T04:48:14.093Z,8.40
2023-11-15T04:53:15.951Z,8.40
2023-11-15T04:58:17.727Z,8.30
2023-11-15T05:03:21.440Z,8.40
2023-11-15T05:08:23.941Z,8.40
2023-11-15T05:13:25.710Z,8.40
2023-11-15T05:18:27.561Z,8.40
2023-11-15T05:23:30.024Z,8.40
2023-11-15T05:28:31.919Z,8.30
2023-11-15T05:33:33.825Z,8.30
2023-11-15T05:38:37.083Z,8.40
2023-11-15T05:43:39.192Z,8.30
2023-11-15T05:48:41.052Z,8.30
2023-11-15T05:53:44.920Z,8.20
2023-11-15T05:58:47.088Z,8.30
2023-11-15T06:03:49.706Z,8.30
2023-11-15T06:08:51.638Z,8.20
2023-11-15T06:13:53.422Z,8.20
2023-11-15T06:18:55.212Z,8.20
2023-11-15T06:23:57.955Z,8.20
2023-11-15T06:29:00.212Z,8.20
2023-11-15T06:34:03.089Z,8.10
2023-11-15T06:39:06.695Z,8.10
2023-11-15T06:44:09.559Z,8.10
2023-11-15T06:49:14.049Z,8.10
2023-11-15T06:54:17.300Z,8.10
2023-11-15T06:59:19.124Z,8.10
2023-11-15T07:04:21.166Z,8.10
2023-11-15T07:09:22.945Z,8.20
2023-11-15T07:14:25.736Z,8.20
2023-11-15T07:19:28.854Z,8.30
2023-11-15T07:24:30.962Z,8.30
2023-11-15T07:29:34.506Z,8.20
2023-11-15T07:34:37.161Z,8.30
2023-11-15T07:39:38.941Z,8.20
2023-11-15T07:44:42.180Z,8.30
2023-11-15T07:49:44.927Z,8.30
2023-11-15T07:54:46.713Z,8.30
2023-11-15T07:59:48.665Z,8.40
2023-11-15T08:04:51.728Z,8.40
2023-11-15T08:09:53.505Z,8.40
2023-11-15T08:14:55.384Z,8.50
2023-11-15T08:19:58.016Z,8.50
2023-11-15T08:25:00.608Z,8.50
2023-11-15T08:30:06.526Z,8.60
2023-11-15T08:35:08.818Z,8.60
2023-11-15T08:45:21.674Z,8.70
2023-11-15T08:50:25.156Z,8.80
2023-11-15T08:55:27.429Z,8.90
2023-11-15T09:00:31.055Z,8.90
2023-11-15T09:05:33.564Z,8.90
2023-11-15T09:10:35.813Z,8.90
2023-11-15T09:15:37.795Z,8.90
2023-11-15T09:20:42.461Z,8.90
2023-11-15T09:25:44.480Z,9.00
2023-11-15T09:30:46.844Z,9.00
2023-11-15T09:35:55.011Z,9.00
2023-11-15T09:41:05.228Z,9.10
2023-11-15T09:46:10.803Z,9.10
2023-11-15T09:51:13.695Z,9.00
2023-11-15T10:01:23.931Z,9.10
2023-11-15T10:06:26.251Z,9.10
2023-11-15T10:11:28.305Z,9.10
2023-11-15T10:16:31.323Z,9.20
2023-11-15T10:21:35.124Z,9.20
2023-11-15T10:26:40.034Z,9.20
2023-11-15T10:31:54.633Z,9.20
2023-11-15T10:37:11.241Z,9.30
2023-11-15T10:42:15.504Z,9.20
2023-11-15T10:47:23.499Z,9.30
2023-11-15T10:52:26.347Z,9.30
2023-11-15T10:57:30.748Z,9.40
2023-11-15T11:02:34.838Z,9.50
2023-11-15T11:07:50.131Z,9.50
2023-11-15T11:12:51.961Z,9.60
2023-11-15T11:18:05.274Z,9.70
2023-11-15T11:23:18.675Z,9.90
2023-11-15T11:28:21.983Z,10.00
2023-11-15T11:33:26.149Z,9.90
2023-11-15T11:38:44.654Z,9.80
2023-11-15T11:43:56.502Z,9.70
2023-11-15T11:49:01.123Z,9.60
2023-11-15T11:54:04.898Z,9.60
2023-11-15T11:59:13.398Z,9.60
2023-11-15T12:04:15.546Z,9.70
2023-11-15T12:09:24.733Z,9.90
2023-11-15T12:14:27.773Z,9.80
2023-11-15T12:19:44.095Z,9.70
2023-11-15T12:24:47.084Z,9.70
2023-11-15T12:29:52.792Z,9.80
2023-11-15T12:34:55.669Z,9.90
2023-11-15T12:39:57.522Z,9.80
2023-11-15T12:44:59.828Z,9.80
2023-11-15T12:50:04.376Z,9.80
2023-11-15T12:55:10.469Z,9.80
2023-11-15T13:00:34.792Z,9.80
2023-11-15T13:05:37.699Z,9.70
2023-11-15T13:10:42.737Z,9.70
2023-11-15T13:15:44.476Z,9.70
2023-11-15T13:20:47.910Z,9.70
2023-11-15T13:25:49.802Z,9.70
2023-11-15T13:30:51.573Z,9.80
2023-11-15T13:35:53.939Z,9.80
2023-11-15T13:40:55.788Z,9.70
2023-11-15T13:45:57.766Z,9.70
2023-11-15T13:50:59.873Z,9.60
2023-11-15T13:56:01.697Z,9.60
2023-11-15T14:01:05.118Z,9.60
2023-11-15T14:06:08.407Z,9.60
2023-11-15T14:11:13.919Z,9.70
2023-11-15T14:16:16.687Z,9.70
2023-11-15T14:21:18.758Z,9.60
2023-11-15T14:26:20.756Z,9.60
2023-11-15T14:31:22.643Z,9.50
2023-11-15T14:36:27.336Z,9.50
2023-11-15T14:41:32.098Z,9.40
2023-11-15T14:46:34.068Z,9.30
2023-11-15T14:51:36.928Z,9.20
2023-11-15T14:56:38.831Z,9.10
2023-11-15T15:01:40.711Z,9.10
2023-11-15T15:06:47.010Z,8.90
2023-11-15T15:11:48.933Z,8.90
2023-11-15T15:16:50.886Z,8.70
2023-11-15T15:21:53.024Z,8.70
2023-11-15T15:26:56.719Z,8.60
2023-11-15T15:31:58.754Z,8.50
2023-11-15T15:37:00.604Z,8.40
2023-11-15T15:42:03.925Z,8.40
2023-11-15T15:47:07.339Z,8.30
2023-11-15T15:52:11.027Z,8.20
2023-11-15T15:57:12.815Z,8.20
2023-11-15T16:02:14.641Z,8.20
2023-11-15T16:07:16.498Z,8.10
2023-11-15T16:12:18.399Z,8.20
2023-11-15T16:17:20.533Z,8.10
2023-11-15T16:22:22.308Z,8.00
2023-11-15T16:27:31.837Z,8.10
2023-11-15T16:32:38.598Z,8.10
2023-11-15T16:37:42.853Z,8.10
2023-11-15T16:42:45.032Z,8.10
2023-11-15T16:47:47.695Z,8.10
2023-11-15T16:52:51.025Z,8.10
2023-11-15T16:57:52.826Z,8.10
2023-11-15T17:02:55.596Z,8.10
2023-11-15T17:07:57.974Z,8.10
2023-11-15T17:12:59.740Z,8.10
2023-11-15T17:18:01.589Z,8.10
2023-11-15T17:23:05.964Z,8.10
2023-11-15T17:28:10.089Z,8.00
2023-11-15T17:33:12.054Z,7.90
2023-11-15T17:38:14.267Z,7.90
2023-11-15T17:43:16.098Z,7.90
2023-11-15T17:48:17.955Z,7.90
2023-11-15T17:53:20.348Z,8.00
2023-11-15T17:58:23.570Z,7.90
2023-11-15T18:03:25.452Z,7.90
2023-11-15T18:08:28.394Z,7.80
2023-11-15T18:13:30.801Z,7.80
2023-11-15T18:18:32.676Z,7.80
2023-11-15T18:23:34.588Z,7.80
2023-11-15T18:28:39.029Z,7.70
2023-11-15T18:33:40.938Z,7.80
2023-11-15T18:38:42.732Z,7.80
2023-11-15T18:43:45.021Z,7.70
2023-11-15T18:48:48.739Z,7.80
2023-11-15T18:53:51.088Z,7.80
2023-11-15T18:58:54.499Z,7.90
2023-11-15T19:03:58.506Z,7.80
2023-11-15T19:09:00.704Z,7.80
2023-11-15T19:14:02.445Z,7.80
2023-11-15T19:19:05.876Z,7.80
2023-11-15T19:24:08.336Z,7.80
2023-11-15T19:29:10.265Z,7.80
2023-11-15T19:34:14.510Z,7.70
2023-11-15T19:39:16.462Z,7.70
2023-11-15T19:44:18.246Z,7.70
2023-11-15T19:49:20.799Z,7.70
2023-11-15T19:54:23.642Z,7.70
2023-11-15T19:59:25.502Z,7.60
2023-11-15T20:04:32.462Z,7.60
2023-11-15T20:09:34.682Z,7.60
2023-11-15T20:14:36.789Z,7.60
2023-11-15T20:19:38.699Z,7.50
2023-11-15T20:24:40.506Z,7.50
2023-11-15T20:29:43.303Z,7.50
2023-11-15T20:34:45.696Z,7.50
2023-11-15T20:39:48.527Z,7.50
2023-11-15T20:44:50.382Z,7.50
2023-11-15T20:49:52.610Z,7.50
2023-11-15T20:54:54.579Z,7.60
2023-11-15T20:59:59.967Z,7.60
2023-11-15T21:05:04.465Z,7.60
2023-11-15T21:10:08.675Z,7.60
2023-11-15T21:15:11.128Z,7.60
2023-11-15T21:20:13.398Z,7.60
2023-11-15T21:25:15.567Z,7.60
2023-11-15T21:30:19.175Z,7.60
2023-11-15T21:35:21.181Z,7.60
2023-11-15T21:40:23.438Z,7.60
2023-11-15T21:45:26.411Z,7.60
2023-11-15T21:50:28.547Z,7.60
2023-11-15T21:55:30.543Z,7.60
2023-11-15T22:00:32.533Z,7.60
2023-11-15T22:05:36.228Z,7.50
2023-11-15T22:10:38.222Z,7.60
2023-11-15T22:15:40.247Z,7.60
2023-11-15T22:20:42.077Z,7.50
2023-11-15T22:25:43.836Z,7.50
2023-11-15T22:30:46.073Z,7.50
2023-11-15T22:35:50.216Z,7.50
2023-11-15T22:40:52.077Z,7.50
2023-11-15T22:45:53.904Z,7.50
2023-11-15T22:50:55.682Z,7.50
2023-11-15T22:55:57.517Z,7.50
2023-11-15T23:00:59.413Z,7.50
2023-11-15T23:06:01.400Z,7.50
2023-11-15T23:11:03.285Z,7.50
2023-11-15T23:16:05.640Z,7.40
2023-11-15T23:21:09.284Z,7.40
2023-11-15T23:26:11.351Z,7.30
2023-11-15T23:31:13.410Z,7.30
2023-11-15T23:36:16.244Z,7.20
2023-11-15T23:41:18.044Z,7.20
2023-11-15T23:46:20.163Z,7.20
2023-11-15T23:51:22.038Z,7.20
2023-11-15T23:56:23.831Z,7.20
